City of London, United Kingdom
Current Conditions -  °F | °C
As of 12:50 AM on Wednesday 22 Oct 2014 (Local Time) from EGLC Reporting Station
Clear Clear  
Wind Chill: 50°   Ceiling: Unl
Heat Index: 50°   Visibility: 6mi
Dew Point: 37°   Wind: 16mph
Humidity: 62%   Direction: 290°WNW
Pressure: 30.15"   Gusts: NA
Location:  51.51°N, 0.09°W
Report Text: EGLC 212350Z AUTO 29014KT 9999 NCD 10/03 Q1021
Loading
Personal Weather Stations






























Interactive Weather Map
Tropical Storm Tracking
New forecast layout! Learn more

10-Day Weather Forecast

Advertisements
Track Severe Weather on mobile